Time;durP1;ratioP1;P1;durP2;ratioP2;P2;SDS_P1;SDS_P2;PMS_P1;PMS_P2;Temp;Humidity;BMP_temperature;BMP_pressure;BME280_temperature;BME280_humidity;BME280_pressure;Samples;Min_cycle;Max_cycle;Signal;HPM_P1;HPM_P2
2024/03/13 00:00:13;;;;;;;56.47;28.70;;;7.30;99.90;;;;;;5016735;28;20103;-78
2024/03/13 00:02:45;;;;;;;55.78;28.90;;;7.30;99.90;;;;;;5015715;28;20033;-78
2024/03/13 00:05:11;;;;;;;61.25;29.13;;;7.40;99.90;;;;;;5039307;28;20044;-78
2024/03/13 00:07:40;;;;;;;56.95;27.90;;;7.40;99.90;;;;;;5021541;28;20086;-78
2024/03/13 00:10:08;;;;;;;56.63;28.98;;;7.40;99.90;;;;;;5003960;28;20033;-78
2024/03/13 00:12:34;;;;;;;53.15;27.27;;;7.40;99.90;;;;;;5000542;28;20073;-78
2024/03/13 00:15:05;;;;;;;56.92;27.55;;;7.40;99.90;;;;;;5002577;28;20045;-78
2024/03/13 00:17:32;;;;;;;58.15;27.80;;;7.40;99.90;;;;;;5014586;28;20041;-78
2024/03/13 00:19:58;;;;;;;51.83;27.55;;;7.40;99.90;;;;;;5025986;28;20415;-78
2024/03/13 00:22:25;;;;;;;53.00;27.67;;;7.40;99.90;;;;;;5018042;28;20048;-78
2024/03/13 00:24:52;;;;;;;59.95;29.52;;;8.00;99.90;;;;;;5018567;28;20100;-78
2024/03/13 00:27:20;;;;;;;58.13;28.95;;;7.40;99.90;;;;;;5041444;28;20097;-78
2024/03/13 00:29:46;;;;;;;57.28;28.55;;;7.50;99.90;;;;;;5024852;28;20041;-78
2024/03/13 00:32:18;;;;;;;59.08;26.77;;;7.40;99.90;;;;;;5020589;28;20038;-78
2024/03/13 00:34:47;;;;;;;56.38;27.23;;;7.40;99.90;;;;;;5042128;28;20052;-78
2024/03/13 00:37:14;;;;;;;56.78;27.35;;;7.50;99.90;;;;;;5020682;28;20067;-78
2024/03/13 00:39:41;;;;;;;55.20;27.15;;;7.40;99.90;;;;;;5017358;28;20056;-78
2024/03/13 00:42:09;;;;;;;55.95;27.73;;;7.50;99.90;;;;;;5001311;28;20053;-78
2024/03/13 00:44:35;;;;;;;54.28;27.77;;;7.50;99.90;;;;;;5012706;28;20088;-78
2024/03/13 00:47:01;;;;;;;54.55;27.88;;;7.50;99.90;;;;;;5024879;28;20084;-78
2024/03/13 00:49:27;;;;;;;53.42;27.00;;;7.50;99.90;;;;;;5024780;28;20036;-78
2024/03/13 00:51:54;;;;;;;53.40;27.95;;;7.50;99.90;;;;;;5024881;28;20038;-78
2024/03/13 00:54:21;;;;;;;54.83;26.48;;;7.40;99.90;;;;;;5006001;28;20041;-78
2024/03/13 00:56:48;;;;;;;59.72;27.98;;;7.50;99.90;;;;;;5003754;28;20096;-78
2024/03/13 00:59:17;;;;;;;57.30;27.33;;;7.70;99.90;;;;;;5039493;28;20395;-78
2024/03/13 01:01:44;;;;;;;57.13;27.80;;;7.50;99.90;;;;;;5024103;28;20032;-78
2024/03/13 01:04:12;;;;;;;60.75;28.42;;;7.50;99.90;;;;;;5040598;28;20037;-78
2024/03/13 01:06:39;;;;;;;50.47;26.65;;;7.40;99.90;;;;;;5006638;28;20045;-78
2024/03/13 01:09:05;;;;;;;55.30;27.38;;;7.50;99.90;;;;;;5019367;28;20079;-78
2024/03/13 01:11:31;;;;;;;53.85;27.60;;;7.50;99.90;;;;;;5019233;28;20060;-78
2024/03/13 01:13:56;;;;;;;55.55;27.50;;;7.50;99.90;;;;;;5036980;28;20042;-78
2024/03/13 01:16:23;;;;;;;50.97;25.98;;;8.00;99.90;;;;;;5040222;28;20415;-78
2024/03/13 01:18:49;;;;;;;56.75;26.92;;;7.70;99.90;;;;;;5031476;28;20046;-78
2024/03/13 01:21:20;;;;;;;52.05;27.05;;;7.90;99.90;;;;;;5018570;28;20054;-78
2024/03/13 01:23:46;;;;;;;56.55;27.60;;;7.50;99.90;;;;;;5036214;28;20053;-78
2024/03/13 01:26:12;;;;;;;55.42;27.65;;;8.20;99.90;;;;;;5045073;28;20033;-78
2024/03/13 01:28:39;;;;;;;54.35;28.30;;;7.80;99.90;;;;;;5026099;28;20087;-78
2024/03/13 01:31:08;;;;;;;59.40;27.90;;;8.20;99.90;;;;;;5024677;28;20044;-78
2024/03/13 01:33:35;;;;;;;51.55;25.98;;;7.70;99.90;;;;;;5005507;28;20038;-78
2024/03/13 01:36:02;;;;;;;54.58;26.17;;;7.50;99.90;;;;;;5023913;28;20037;-78
2024/03/13 01:38:28;;;;;;;51.47;25.85;;;7.50;99.90;;;;;;5027184;28;20049;-78
2024/03/13 01:55:04;;;;;;;51.17;25.65;;;7.50;99.90;;;;;;5023937;28;20052;-78
2024/03/13 01:57:32;;;;;;;52.97;26.47;;;7.50;99.90;;;;;;5030528;28;20041;-78
2024/03/13 02:02:48;;;;;;;54.42;25.73;;;7.60;99.90;;;;;;5039011;28;20045;-78
2024/03/13 02:05:16;;;;;;;46.45;24.30;;;7.60;99.90;;;;;;5023204;28;20044;-78
2024/03/13 02:07:41;;;;;;;48.53;25.80;;;7.60;99.90;;;;;;5025177;28;20037;-78
2024/03/13 02:10:07;;;;;;;46.60;24.58;;;7.60;99.90;;;;;;5041594;28;20378;-78
2024/03/13 02:12:33;;;;;;;53.00;25.10;;;7.60;99.90;;;;;;5042740;28;20084;-78
2024/03/13 02:14:59;;;;;;;47.17;23.73;;;7.60;99.90;;;;;;5003846;28;20167;-78
2024/03/13 02:17:24;;;;;;;48.83;24.73;;;7.60;99.90;;;;;;5041744;28;20037;-78
2024/03/13 02:19:54;;;;;;;45.50;24.73;;;7.60;99.90;;;;;;5043776;28;20044;-78
2024/03/13 02:22:19;;;;;;;48.17;25.10;;;7.60;99.90;;;;;;5023617;28;20040;-78
2024/03/13 02:24:45;;;;;;;47.83;24.13;;;7.60;99.90;;;;;;5016227;28;20076;-78
2024/03/13 02:27:12;;;;;;;43.97;23.15;;;7.60;99.90;;;;;;5004657;28;20037;-78
2024/03/13 02:29:38;;;;;;;47.97;23.38;;;7.60;99.90;;;;;;5044522;28;20029;-78
2024/03/13 02:32:05;;;;;;;44.97;23.58;;;7.70;99.90;;;;;;5033244;28;20491;-78
2024/03/13 02:34:30;;;;;;;49.47;24.17;;;7.70;99.90;;;;;;5025664;28;20049;-78
2024/03/13 02:36:56;;;;;;;46.30;23.50;;;7.70;99.90;;;;;;5012051;28;20045;-78
2024/03/13 02:39:24;;;;;;;42.95;23.40;;;7.70;99.90;;;;;;5041543;28;20108;-78
2024/03/13 02:41:49;;;;;;;45.58;23.83;;;7.70;99.90;;;;;;5019760;28;20107;-78
2024/03/13 02:44:15;;;;;;;44.53;23.60;;;7.70;99.90;;;;;;5039330;28;20033;-78
2024/03/13 02:46:43;;;;;;;42.20;22.35;;;7.70;99.90;;;;;;5024687;28;20046;-78
2024/03/13 02:49:09;;;;;;;42.75;22.98;;;7.80;99.90;;;;;;5019644;28;20386;-78
2024/03/13 02:51:34;;;;;;;47.20;23.73;;;7.70;99.90;;;;;;5042393;28;20038;-78
2024/03/13 02:54:00;;;;;;;45.55;22.73;;;7.70;99.90;;;;;;5036066;28;20034;-78
2024/03/13 02:56:26;;;;;;;45.60;23.52;;;7.70;99.90;;;;;;5022808;28;20571;-78
2024/03/13 02:58:52;;;;;;;46.28;23.73;;;7.80;99.90;;;;;;5038007;28;20492;-78
2024/03/13 03:01:18;;;;;;;46.40;23.52;;;7.70;99.90;;;;;;5018824;28;20117;-78
2024/03/13 03:03:43;;;;;;;43.60;23.50;;;7.70;99.90;;;;;;5038895;28;20431;-78
2024/03/13 03:06:09;;;;;;;42.47;22.25;;;7.80;99.90;;;;;;5017794;28;20046;-78
2024/03/13 03:08:37;;;;;;;46.05;23.23;;;7.80;99.90;;;;;;5042211;28;20117;-78
2024/03/13 03:11:03;;;;;;;46.88;24.05;;;7.80;99.90;;;;;;5037962;28;20041;-78
2024/03/13 03:13:30;;;;;;;43.50;23.27;;;7.90;99.90;;;;;;5019985;28;20041;-78
2024/03/13 03:15:55;;;;;;;44.95;24.10;;;7.80;99.90;;;;;;5013356;28;20045;-78
2024/03/13 03:18:22;;;;;;;47.80;23.92;;;7.80;99.90;;;;;;5039583;28;20041;-78
2024/03/13 03:20:48;;;;;;;45.38;23.42;;;8.00;99.90;;;;;;5039978;28;20041;-78
2024/03/13 03:23:15;;;;;;;48.92;24.23;;;7.80;99.90;;;;;;5036592;28;20029;-78
2024/03/13 03:25:40;;;;;;;46.50;24.05;;;7.80;99.90;;;;;;5037633;28;20111;-78
2024/03/13 03:28:06;;;;;;;45.67;24.13;;;7.80;99.90;;;;;;5020246;28;20089;-78
2024/03/13 03:30:32;;;;;;;47.40;23.23;;;7.80;99.90;;;;;;5034234;28;20408;-77
2024/03/13 03:33:00;;;;;;;44.92;23.63;;;7.80;99.90;;;;;;5042791;28;20415;-77
2024/03/13 03:35:27;;;;;;;41.42;22.23;;;7.80;99.90;;;;;;5012492;28;20046;-77
2024/03/13 03:37:53;;;;;;;43.85;21.55;;;7.80;99.90;;;;;;5028711;28;20065;-77
2024/03/13 03:40:19;;;;;;;43.90;22.08;;;7.90;99.90;;;;;;5023055;28;20044;-77
2024/03/13 03:42:46;;;;;;;42.13;22.95;;;7.90;99.90;;;;;;5032786;28;20439;-77
2024/03/13 03:45:12;;;;;;;43.85;21.92;;;7.80;99.90;;;;;;5017007;28;20116;-77
2024/03/13 03:47:39;;;;;;;45.30;22.70;;;7.90;99.90;;;;;;5022874;28;20132;-78
2024/03/13 03:50:07;;;;;;;43.97;22.55;;;7.90;99.90;;;;;;5037983;28;20043;-78
2024/03/13 03:52:34;;;;;;;42.85;22.05;;;7.90;99.90;;;;;;5039453;28;20060;-77
2024/03/13 03:54:59;;;;;;;42.95;22.50;;;7.90;99.90;;;;;;5038533;28;20049;-78
2024/03/13 03:57:25;;;;;;;46.08;24.00;;;7.90;99.90;;;;;;5036962;28;20039;-78
2024/03/13 03:59:50;;;;;;;41.90;21.45;;;7.90;99.90;;;;;;5045358;28;20036;-78
2024/03/13 04:02:16;;;;;;;44.05;22.48;;;7.90;99.90;;;;;;5004030;28;20463;-78
2024/03/13 04:04:43;;;;;;;44.83;23.23;;;7.90;99.90;;;;;;5040875;28;20063;-78
2024/03/13 04:07:11;;;;;;;47.67;23.52;;;7.80;99.90;;;;;;5037587;28;20045;-77
2024/03/13 04:09:37;;;;;;;47.45;24.10;;;7.90;99.90;;;;;;5020118;28;20040;-78
2024/03/13 04:12:03;;;;;;;52.38;25.27;;;7.90;99.90;;;;;;5042868;28;20041;-78
2024/03/13 04:14:29;;;;;;;51.83;24.83;;;7.90;99.90;;;;;;5029845;28;20399;-78
2024/03/13 04:16:54;;;;;;;50.92;24.50;;;7.90;99.90;;;;;;5044770;28;20046;-77
2024/03/13 04:19:21;;;;;;;51.55;25.75;;;7.90;99.90;;;;;;5034903;28;20033;-78
2024/03/13 04:21:50;;;;;;;54.00;24.65;;;7.90;99.90;;;;;;5019215;28;20080;-78
2024/03/13 04:24:17;;;;;;;54.80;26.20;;;7.90;99.90;;;;;;5016632;28;20084;-78
2024/03/13 04:26:45;;;;;;;52.53;25.63;;;7.90;99.90;;;;;;5034462;28;20115;-78
2024/03/13 04:29:11;;;;;;;56.40;26.13;;;7.90;99.90;;;;;;5042666;28;20041;-78
2024/03/13 04:31:39;;;;;;;58.25;25.45;;;7.90;99.90;;;;;;5032906;28;20029;-78
2024/03/13 04:34:07;;;;;;;59.33;26.95;;;7.90;99.90;;;;;;5039426;28;20098;-78
2024/03/13 04:36:38;;;;;;;57.10;26.10;;;7.90;99.90;;;;;;5022004;28;20522;-78
2024/03/13 04:39:09;;;;;;;51.78;25.95;;;7.90;99.90;;;;;;5014067;28;20044;-78
2024/03/13 04:41:39;;;;;;;54.23;24.10;;;8.10;99.90;;;;;;5031367;28;20044;-77
2024/03/13 04:44:09;;;;;;;55.10;25.73;;;7.90;99.90;;;;;;5020871;28;20090;-77
2024/03/13 04:46:35;;;;;;;54.45;25.77;;;7.90;99.90;;;;;;5037393;28;20042;-78
2024/03/13 04:49:01;;;;;;;55.15;26.30;;;7.90;99.90;;;;;;5035064;28;20029;-77
2024/03/13 04:51:26;;;;;;;61.00;25.13;;;7.90;99.90;;;;;;5001871;28;20062;-78
2024/03/13 04:53:52;;;;;;;69.35;27.73;;;7.90;99.90;;;;;;5044534;23;20492;-75
2024/03/13 04:56:18;;;;;;;55.75;25.75;;;7.90;99.90;;;;;;5044944;28;20041;-76
2024/03/13 04:58:44;;;;;;;67.72;26.55;;;7.90;99.90;;;;;;5033031;28;20033;-76
2024/03/13 05:01:19;;;;;;;63.03;25.70;;;8.00;99.90;;;;;;5050564;28;20387;-76
2024/03/13 05:03:45;;;;;;;63.85;25.95;;;7.90;99.90;;;;;;5001297;28;20049;-76
2024/03/13 05:06:11;;;;;;;58.05;24.70;;;7.90;99.90;;;;;;5026038;28;20041;-76
2024/03/13 05:08:36;;;;;;;57.90;24.20;;;7.90;99.90;;;;;;5025216;28;20037;-76
2024/03/13 05:11:03;;;;;;;62.35;24.33;;;8.00;99.90;;;;;;5028751;28;20069;-76
2024/03/13 05:13:28;;;;;;;54.33;23.23;;;8.00;99.90;;;;;;5025576;28;20029;-76
2024/03/13 05:15:54;;;;;;;62.17;23.88;;;8.50;99.90;;;;;;5030062;28;20495;-76
2024/03/13 05:18:20;;;;;;;60.97;24.50;;;8.00;99.90;;;;;;5009310;28;20034;-76
2024/03/13 05:20:46;;;;;;;67.68;23.95;;;8.50;99.90;;;;;;5008744;28;20539;-76
2024/03/13 05:23:11;;;;;;;67.32;24.27;;;8.00;99.90;;;;;;5010384;28;20083;-76
2024/03/13 05:25:37;;;;;;;60.22;25.10;;;8.00;99.90;;;;;;5029458;28;20038;-76
2024/03/13 05:28:03;;;;;;;57.35;24.10;;;8.20;99.90;;;;;;4997476;28;20121;-75
2024/03/13 05:30:29;;;;;;;63.00;24.65;;;8.00;99.90;;;;;;5032960;28;20065;-76
2024/03/13 05:32:56;;;;;;;54.63;23.83;;;8.40;99.90;;;;;;5026331;28;20038;-75
2024/03/13 05:35:23;;;;;;;57.55;24.05;;;8.20;99.90;;;;;;5017702;28;20048;-75
2024/03/13 05:37:49;;;;;;;57.65;23.67;;;8.40;99.90;;;;;;5014895;28;20045;-75
2024/03/13 05:40:19;;;;;;;62.80;24.48;;;8.40;99.90;;;;;;5012681;28;20049;-75
2024/03/13 05:42:45;;;;;;;56.80;22.75;;;8.10;99.90;;;;;;5015892;28;20055;-74
2024/03/13 05:45:11;;;;;;;52.60;22.65;;;8.10;99.90;;;;;;5022830;28;20049;-76
2024/03/13 05:47:37;;;;;;;59.15;22.98;;;8.10;99.90;;;;;;5012873;28;20041;-75
2024/03/13 05:50:03;;;;;;;51.90;22.55;;;8.10;99.90;;;;;;5030498;28;20030;-75
2024/03/13 05:52:29;;;;;;;58.20;22.63;;;8.10;99.90;;;;;;5015522;28;20121;-75
2024/03/13 05:54:57;;;;;;;58.92;22.30;;;8.10;99.90;;;;;;5022122;28;20049;-75
2024/03/13 05:57:22;;;;;;;59.72;22.40;;;8.10;99.90;;;;;;5018117;28;20046;-75
2024/03/13 05:59:52;;;;;;;57.58;22.45;;;8.70;99.90;;;;;;5012117;28;20046;-75
2024/03/13 06:02:18;;;;;;;56.45;22.33;;;8.20;99.90;;;;;;4997487;28;20448;-75
2024/03/13 06:04:44;;;;;;;54.97;22.08;;;8.20;99.90;;;;;;5015381;28;20037;-77
2024/03/13 06:07:12;;;;;;;58.70;22.27;;;8.20;99.90;;;;;;5031819;28;20099;-76
2024/03/13 06:09:37;;;;;;;63.17;22.80;;;8.20;99.90;;;;;;5016557;28;20067;-75
2024/03/13 06:12:03;;;;;;;61.65;22.70;;;8.20;99.90;;;;;;5027652;28;20034;-74
2024/03/13 06:14:29;;;;;;;61.70;23.17;;;8.20;99.90;;;;;;4998120;28;20180;-75
2024/03/13 06:16:55;;;;;;;58.83;21.60;;;8.20;99.90;;;;;;4996409;28;20042;-75
2024/03/13 06:19:21;;;;;;;62.28;22.65;;;8.30;99.90;;;;;;5007217;28;20049;-75
2024/03/13 06:21:46;;;;;;;63.88;23.15;;;8.30;99.90;;;;;;5014411;28;20069;-75
2024/03/13 06:24:12;;;;;;;59.97;22.55;;;8.30;99.90;;;;;;5010624;28;20508;-75
2024/03/13 06:26:45;;;;;;;53.25;20.88;;;8.30;99.90;;;;;;5018293;28;20049;-75
2024/03/13 06:31:55;;;;;;;51.58;21.13;;;8.50;99.90;;;;;;5024537;28;20045;-75
2024/03/13 06:34:23;;;;;;;47.53;19.65;;;8.60;99.90;;;;;;5026366;28;20048;-75
2024/03/13 06:36:48;;;;;;;51.17;20.30;;;8.40;99.90;;;;;;5015052;28;20041;-74
2024/03/13 06:39:16;;;;;;;54.55;19.77;;;8.80;99.90;;;;;;5015258;28;20389;-74
2024/03/13 06:41:41;;;;;;;51.80;20.02;;;8.60;99.90;;;;;;5029905;28;20072;-74
2024/03/13 06:44:07;;;;;;;53.80;21.70;;;8.80;99.90;;;;;;5026419;28;20042;-74
2024/03/13 06:46:34;;;;;;;54.13;19.52;;;7.90;99.90;;;;;;5033517;28;20081;-74
2024/03/13 06:49:00;;;;;;;54.22;21.40;;;8.50;99.90;;;;;;5011449;28;20509;-74
2024/03/13 06:51:25;;;;;;;55.13;20.33;;;8.60;99.90;;;;;;5026172;28;20035;-74
2024/03/13 06:53:51;;;;;;;58.22;20.00;;;8.60;99.90;;;;;;5013055;28;20132;-74
2024/03/13 06:56:16;;;;;;;54.17;20.98;;;8.60;99.90;;;;;;5025739;28;20041;-74
2024/03/13 06:58:42;;;;;;;56.25;20.50;;;8.60;99.90;;;;;;5013754;28;20408;-74
2024/03/13 07:01:15;;;;;;;54.50;21.00;;;8.70;99.90;;;;;;5026406;28;20031;-74
2024/03/13 07:03:41;;;;;;;55.67;20.65;;;8.70;99.90;;;;;;5007811;28;20052;-74
2024/03/13 07:06:07;;;;;;;59.97;20.67;;;8.80;99.90;;;;;;5010483;28;20042;-74
2024/03/13 07:08:35;;;;;;;65.63;21.08;;;8.80;99.90;;;;;;5021696;28;20387;-74
2024/03/13 07:11:04;;;;;;;55.28;21.40;;;8.80;99.90;;;;;;4992474;28;20045;-74
2024/03/13 07:13:31;;;;;;;61.92;21.27;;;8.80;99.90;;;;;;5019894;28;20033;-75
2024/03/13 07:15:56;;;;;;;65.45;20.60;;;9.20;99.90;;;;;;5003200;28;20057;-75
2024/03/13 07:18:31;;;;;;;68.57;22.25;;;8.80;99.90;;;;;;5029611;28;20477;-74
2024/03/13 07:20:58;;;;;;;62.65;21.17;;;8.90;99.90;;;;;;5021826;28;20057;-75
2024/03/13 07:23:25;;;;;;;55.42;19.80;;;8.80;99.90;;;;;;5013448;28;20530;-74
2024/03/13 07:25:53;;;;;;;59.30;20.63;;;8.90;99.90;;;;;;5018626;28;20054;-74
2024/03/13 07:28:18;;;;;;;55.35;19.35;;;9.00;99.90;;;;;;5002676;28;20424;-74
2024/03/13 07:30:47;;;;;;;54.65;19.83;;;9.00;99.90;;;;;;5020473;28;20048;-74
2024/03/13 07:33:14;;;;;;;52.20;19.15;;;9.00;99.90;;;;;;5019260;28;20181;-74
2024/03/13 07:35:41;;;;;;;63.72;19.83;;;9.00;99.90;;;;;;5027276;28;20124;-74
2024/03/13 07:38:09;;;;;;;49.00;19.52;;;9.10;99.90;;;;;;5003824;28;20049;-74
2024/03/13 07:40:37;;;;;;;52.05;19.42;;;9.10;99.90;;;;;;5010754;28;20045;-74
2024/03/13 07:43:05;;;;;;;58.17;20.25;;;9.10;99.90;;;;;;5023780;28;20041;-74
2024/03/13 07:45:31;;;;;;;55.38;19.65;;;9.20;99.90;;;;;;5009565;28;20046;-74
2024/03/13 07:48:07;;;;;;;57.38;19.92;;;9.20;99.90;;;;;;5027907;28;20029;-74
2024/03/13 07:50:34;;;;;;;55.75;20.08;;;9.20;99.90;;;;;;4992820;28;20034;-74
2024/03/13 07:53:02;;;;;;;55.47;19.40;;;9.20;99.90;;;;;;5030863;28;20047;-74
2024/03/13 07:55:28;;;;;;;57.75;19.65;;;9.20;99.90;;;;;;5017891;28;20500;-74
2024/03/13 07:57:54;;;;;;;58.72;19.75;;;9.30;99.90;;;;;;5031635;28;20103;-74
2024/03/13 08:00:22;;;;;;;60.92;20.80;;;9.30;99.90;;;;;;5013830;28;20080;-74
2024/03/13 08:02:49;;;;;;;60.03;19.90;;;9.20;99.90;;;;;;5008195;28;20046;-74
2024/03/13 08:05:16;;;;;;;61.80;20.27;;;9.30;99.90;;;;;;5012360;28;20041;-74
2024/03/13 08:07:47;;;;;;;59.70;21.08;;;9.40;99.90;;;;;;5012966;28;20512;-74
2024/03/13 08:10:17;;;;;;;63.47;19.45;;;9.40;99.90;;;;;;4989335;28;20046;-74
2024/03/13 08:12:43;;;;;;;63.58;19.45;;;9.40;99.90;;;;;;5027205;28;20045;-73
2024/03/13 08:15:14;;;;;;;62.10;20.35;;;9.40;99.90;;;;;;5013566;28;20068;-73
2024/03/13 08:17:39;;;;;;;59.67;19.42;;;9.50;99.90;;;;;;5009431;28;20084;-73
2024/03/13 08:20:12;;;;;;;65.53;20.42;;;9.50;99.90;;;;;;5022946;28;20045;-73
2024/03/13 08:22:39;;;;;;;53.22;18.80;;;9.50;99.90;;;;;;5012354;28;20046;-73
2024/03/13 08:25:05;;;;;;;55.83;17.73;;;9.50;99.90;;;;;;5010836;28;20114;-74
2024/03/13 08:27:30;;;;;;;64.15;20.25;;;9.60;99.90;;;;;;5013211;28;20514;-74
2024/03/13 08:29:56;;;;;;;58.47;18.92;;;9.60;99.90;;;;;;5030717;28;20041;-74
2024/03/13 08:32:22;;;;;;;61.53;18.70;;;9.70;99.90;;;;;;5009060;28;20037;-74
2024/03/13 08:34:49;;;;;;;52.63;18.30;;;9.70;99.90;;;;;;5014350;28;20116;-74
2024/03/13 08:37:15;;;;;;;64.28;19.90;;;9.70;99.90;;;;;;5007480;28;20060;-74
2024/03/13 08:39:41;;;;;;;53.50;20.13;;;9.70;99.90;;;;;;5011705;28;20030;-74
2024/03/13 08:42:07;;;;;;;64.68;20.15;;;9.70;99.90;;;;;;5004228;28;20479;-74
2024/03/13 08:44:34;;;;;;;61.13;20.33;;;9.80;99.90;;;;;;5019159;28;20045;-74
2024/03/13 08:46:59;;;;;;;60.28;20.45;;;9.90;99.90;;;;;;5026966;28;20038;-74
2024/03/13 08:49:25;;;;;;;57.10;20.35;;;9.90;99.90;;;;;;5011925;28;20049;-74
2024/03/13 08:51:51;;;;;;;61.17;20.75;;;9.90;99.90;;;;;;5013383;28;20072;-74
2024/03/13 08:54:17;;;;;;;58.33;20.30;;;9.90;99.90;;;;;;5030119;28;20458;-74
2024/03/13 08:56:46;;;;;;;62.35;20.70;;;10.00;99.90;;;;;;5008656;28;20045;-74
2024/03/13 08:59:12;;;;;;;60.47;19.77;;;10.10;99.90;;;;;;5023545;28;20504;-73
2024/03/13 09:01:42;;;;;;;60.25;21.23;;;10.10;99.90;;;;;;5012438;28;20120;-73
2024/03/13 09:04:09;;;;;;;61.72;20.42;;;10.10;99.90;;;;;;5011208;28;20053;-73
2024/03/13 09:06:36;;;;;;;63.60;21.10;;;10.10;99.90;;;;;;5024330;28;20116;-74
2024/03/13 09:09:07;;;;;;;55.97;20.35;;;10.20;99.90;;;;;;5028825;28;20503;-73
2024/03/13 09:11:36;;;;;;;68.50;21.20;;;10.20;99.90;;;;;;5017287;28;20121;-74
2024/03/13 09:14:04;;;;;;;72.05;22.83;;;10.20;99.90;;;;;;4999479;28;20037;-74
2024/03/13 09:16:35;;;;;;;67.05;22.73;;;10.30;99.90;;;;;;5026829;28;20087;-73
2024/03/13 09:19:01;;;;;;;71.55;22.40;;;10.30;99.90;;;;;;5018541;28;20444;-73
2024/03/13 09:21:27;;;;;;;65.05;21.67;;;10.30;99.90;;;;;;5026459;28;20052;-74
2024/03/13 09:23:52;;;;;;;71.68;22.70;;;10.30;99.90;;;;;;5013559;28;20045;-75
2024/03/13 09:26:19;;;;;;;78.78;23.50;;;10.30;99.90;;;;;;5000250;28;20046;-74
2024/03/13 09:28:48;;;;;;;68.30;23.63;;;10.40;99.90;;;;;;5023475;28;20048;-74
2024/03/13 09:31:14;;;;;;;71.70;23.13;;;10.40;99.90;;;;;;4987875;28;20038;-74
2024/03/13 09:33:40;;;;;;;74.63;23.75;;;10.40;99.90;;;;;;5006713;28;20555;-74
2024/03/13 09:36:15;;;;;;;57.35;23.13;;;10.40;99.90;;;;;;5003144;28;20077;-74
2024/03/13 09:38:41;;;;;;;65.63;22.63;;;10.40;99.90;;;;;;5010610;28;20324;-74
2024/03/13 09:41:07;;;;;;;67.60;23.75;;;10.50;99.90;;;;;;5002924;28;20088;-74
2024/03/13 09:43:32;;;;;;;57.97;21.92;;;10.50;99.90;;;;;;5018985;28;20048;-74
2024/03/13 09:46:02;;;;;;;66.40;23.80;;;10.50;99.90;;;;;;5014509;28;20416;-74
2024/03/13 09:48:30;;;;;;;59.25;23.52;;;10.60;99.90;;;;;;5005106;28;20080;-74
2024/03/13 09:50:56;;;;;;;61.63;22.48;;;10.60;99.90;;;;;;5030570;28;20049;-74
2024/03/13 09:53:23;;;;;;;64.53;22.88;;;10.70;99.90;;;;;;5004228;28;20045;-74
2024/03/13 09:55:49;;;;;;;57.33;20.92;;;10.80;99.90;;;;;;5009008;28;20554;-74
2024/03/13 09:58:15;;;;;;;51.42;21.90;;;10.80;99.90;;;;;;5008806;28;20041;-74
2024/03/13 10:00:44;;;;;;;49.72;20.60;;;10.80;99.90;;;;;;5009170;28;20040;-74
2024/03/13 10:03:25;;;;;;;46.58;19.40;;;10.90;99.90;;;;;;4993843;28;20407;-74
2024/03/13 10:06:05;;;;;;;38.03;18.08;;;10.90;99.90;;;;;;5030429;28;20041;-74
2024/03/13 10:08:32;;;;;;;44.10;18.80;;;10.80;99.90;;;;;;5022834;28;20112;-74
2024/03/13 10:11:00;;;;;;;43.10;18.65;;;10.90;99.90;;;;;;5003713;28;20357;-74
2024/03/13 10:13:28;;;;;;;49.67;19.27;;;10.90;99.90;;;;;;5028471;28;20144;-74
2024/03/13 10:15:57;;;;;;;45.03;18.30;;;10.90;99.90;;;;;;5029535;28;20109;-74
2024/03/13 10:18:25;;;;;;;52.22;19.02;;;10.90;99.90;;;;;;5029972;28;20522;-75
2024/03/13 10:21:14;;;;;;;51.55;20.05;;;10.90;99.90;;;;;;5024134;28;20045;-75
2024/03/13 10:23:43;;;;;;;57.58;21.67;;;10.90;99.90;;;;;;5002291;28;20045;-74
2024/03/13 10:26:10;;;;;;;62.97;22.27;;;10.90;99.90;;;;;;5023545;28;20049;-74
2024/03/13 10:28:36;;;;;;;65.97;22.33;;;10.90;99.90;;;;;;5006180;28;20046;-74
2024/03/13 10:31:02;;;;;;;60.45;22.67;;;10.90;99.90;;;;;;5021523;28;20525;-74
2024/03/13 10:33:29;;;;;;;63.90;23.42;;;10.90;99.90;;;;;;5016863;28;20044;-74
2024/03/13 10:35:55;;;;;;;61.88;23.13;;;11.00;99.90;;;;;;5026037;28;20075;-74
2024/03/13 10:38:24;;;;;;;62.95;23.58;;;11.00;99.90;;;;;;5028622;28;20034;-75
2024/03/13 10:40:52;;;;;;;57.42;23.73;;;11.00;99.90;;;;;;5024677;28;20072;-75
2024/03/13 10:43:18;;;;;;;69.07;23.98;;;11.00;99.90;;;;;;4995120;28;20045;-75
2024/03/13 10:45:48;;;;;;;61.28;23.95;;;11.00;99.90;;;;;;5027755;28;20096;-75
2024/03/13 10:48:17;;;;;;;55.13;22.90;;;11.10;99.90;;;;;;5027629;28;20041;-74
2024/03/13 10:50:44;;;;;;;65.82;23.75;;;11.10;99.90;;;;;;4994076;28;20033;-74
2024/03/13 10:53:10;;;;;;;55.05;23.38;;;11.10;99.90;;;;;;5013316;28;20091;-74
2024/03/13 10:55:37;;;;;;;60.35;24.05;;;11.20;99.90;;;;;;5009291;28;20053;-74
2024/03/13 10:58:03;;;;;;;60.88;22.73;;;11.10;99.90;;;;;;5057488;23;20049;-78
2024/03/13 11:00:30;;;;;;;56.78;23.65;;;11.10;99.90;;;;;;5039338;28;20109;-78
2024/03/13 11:02:59;;;;;;;52.97;22.52;;;11.10;99.90;;;;;;5000665;28;20120;-78
2024/03/13 11:05:25;;;;;;;59.90;23.05;;;11.20;99.90;;;;;;5007927;28;20049;-78
2024/03/13 11:07:52;;;;;;;52.92;21.33;;;11.20;99.90;;;;;;5007466;28;20046;-78
2024/03/13 11:10:21;;;;;;;59.65;21.33;;;11.30;99.90;;;;;;5006177;28;20034;-77
2024/03/13 11:12:50;;;;;;;52.47;20.85;;;11.30;99.90;;;;;;5026749;28;20052;-79
2024/03/13 11:15:24;;;;;;;54.03;21.65;;;11.20;99.90;;;;;;4989542;28;20161;-78
2024/03/13 11:17:56;;;;;;;48.33;19.73;;;11.30;99.90;;;;;;5025941;28;20041;-78
2024/03/13 11:20:25;;;;;;;53.03;21.17;;;11.30;99.90;;;;;;5016977;28;20042;-77
2024/03/13 11:23:03;;;;;;;53.03;19.55;;;11.30;99.90;;;;;;5012130;28;20057;-78
2024/03/13 11:25:30;;;;;;;48.65;19.95;;;11.30;99.90;;;;;;5015060;28;20037;-78
2024/03/13 11:28:00;;;;;;;50.10;19.17;;;11.30;99.90;;;;;;5003074;28;20710;-77
2024/03/13 11:30:28;;;;;;;46.67;18.33;;;11.40;99.90;;;;;;5023980;28;20038;-78
2024/03/13 11:32:55;;;;;;;49.92;19.05;;;11.40;99.90;;;;;;5028067;28;20042;-78
2024/03/13 11:35:22;;;;;;;44.50;18.25;;;11.40;99.90;;;;;;5026235;28;20033;-78
2024/03/13 11:37:49;;;;;;;49.15;19.05;;;11.40;99.90;;;;;;5007931;28;20041;-78
2024/03/13 11:40:17;;;;;;;42.58;17.63;;;11.50;99.90;;;;;;5008895;28;20083;-78
2024/03/13 11:42:43;;;;;;;42.72;17.67;;;11.50;99.90;;;;;;5010930;28;20045;-77
2024/03/13 11:45:15;;;;;;;41.97;17.80;;;11.50;99.90;;;;;;5026319;28;20052;-78
2024/03/13 11:48:00;;;;;;;46.50;17.98;;;11.50;99.90;;;;;;5025467;28;20072;-76
2024/03/13 11:50:27;;;;;;;45.50;17.45;;;11.50;99.90;;;;;;5009280;28;20045;-77
2024/03/13 11:52:59;;;;;;;45.47;17.15;;;11.50;99.90;;;;;;5004185;28;20750;-77
2024/03/13 11:55:25;;;;;;;39.67;16.00;;;11.50;99.90;;;;;;5020886;28;20053;-77
2024/03/13 11:58:06;;;;;;;39.58;16.67;;;11.60;99.90;;;;;;4999113;28;20139;-76
2024/03/13 12:00:33;;;;;;;40.63;15.88;;;11.60;99.90;;;;;;5002201;28;20084;-77
2024/03/13 12:03:01;;;;;;;36.78;16.27;;;11.60;99.90;;;;;;5018757;28;20046;-77
2024/03/13 12:05:35;;;;;;;35.85;16.80;;;11.60;99.90;;;;;;5003637;28;20079;-78
2024/03/13 12:08:02;;;;;;;39.83;15.13;;;11.60;99.90;;;;;;5004483;28;20045;-78
2024/03/13 12:10:28;;;;;;;32.17;14.85;;;11.60;99.90;;;;;;5010085;28;20095;-79
2024/03/13 12:12:54;;;;;;;29.27;13.65;;;11.60;99.90;;;;;;5025728;28;20041;-78
2024/03/13 12:15:21;;;;;;;35.13;14.27;;;11.60;99.90;;;;;;4998502;28;20042;-79
2024/03/13 12:17:51;;;;;;;31.40;14.90;;;11.70;99.90;;;;;;5008506;28;20084;-78
2024/03/13 12:20:25;;;;;;;28.73;14.07;;;11.90;99.90;;;;;;5011537;28;20052;-78
2024/03/13 12:22:51;;;;;;;30.50;14.68;;;11.70;99.90;;;;;;5001280;28;20049;-78
2024/03/13 12:25:19;;;;;;;32.85;14.23;;;11.60;99.90;;;;;;4995803;28;20072;-76
2024/03/13 12:27:49;;;;;;;32.13;14.02;;;11.70;99.90;;;;;;5011549;28;20120;-78
2024/03/13 12:30:19;;;;;;;32.13;13.60;;;11.70;99.90;;;;;;5022379;28;20026;-78
2024/03/13 12:32:58;;;;;;;31.15;14.75;;;11.80;99.90;;;;;;5026463;28;20045;-78
2024/03/13 12:35:25;;;;;;;34.78;15.18;;;11.80;99.90;;;;;;4990780;28;20061;-78
2024/03/13 12:37:52;;;;;;;32.83;14.88;;;11.90;99.90;;;;;;5009021;28;20060;-77
2024/03/13 12:40:20;;;;;;;29.60;15.20;;;12.00;99.90;;;;;;5013713;28;20050;-77
2024/03/13 12:42:47;;;;;;;30.05;13.98;;;12.10;99.90;;;;;;5017377;28;20555;-78
2024/03/13 12:45:14;;;;;;;29.00;13.52;;;12.20;99.90;;;;;;5011600;28;20057;-78
2024/03/13 12:47:44;;;;;;;26.27;12.10;;;12.20;99.90;;;;;;5028406;28;20040;-76
2024/03/13 12:50:15;;;;;;;24.90;11.50;;;12.20;99.90;;;;;;5030856;28;20046;-78
2024/03/13 12:52:42;;;;;;;24.42;10.43;;;12.20;99.90;;;;;;5029005;28;20041;-77